sensor_id;sensor_type;location;lat;lon;timestamp;temperature;humidity
11239;DHT22;5677;48.488;13.436;2023-07-20T00:01:49;23.70;54.90
11239;DHT22;5677;48.488;13.436;2023-07-20T00:04:16;23.70;55.00
11239;DHT22;5677;48.488;13.436;2023-07-20T00:06:43;23.70;55.00
11239;DHT22;5677;48.488;13.436;2023-07-20T00:09:11;23.70;55.00
11239;DHT22;5677;48.488;13.436;2023-07-20T00:11:38;23.70;55.00
11239;DHT22;5677;48.488;13.436;2023-07-20T00:14:06;23.60;54.80
11239;DHT22;5677;48.488;13.436;2023-07-20T00:16:33;23.70;55.00
11239;DHT22;5677;48.488;13.436;2023-07-20T00:19:00;23.60;54.80
11239;DHT22;5677;48.488;13.436;2023-07-20T00:21:27;23.60;54.80
11239;DHT22;5677;48.488;13.436;2023-07-20T00:23:54;23.60;54.90
11239;DHT22;5677;48.488;13.436;2023-07-20T00:26:20;23.60;54.90
11239;DHT22;5677;48.488;13.436;2023-07-20T00:28:49;23.60;54.90
11239;DHT22;5677;48.488;13.436;2023-07-20T00:34:40;23.60;55.00
11239;DHT22;5677;48.488;13.436;2023-07-20T00:37:06;23.60;54.90
11239;DHT22;5677;48.488;13.436;2023-07-20T00:39:33;23.60;55.00
11239;DHT22;5677;48.488;13.436;2023-07-20T00:42:00;23.60;55.00
11239;DHT22;5677;48.488;13.436;2023-07-20T00:44:27;23.60;55.00
11239;DHT22;5677;48.488;13.436;2023-07-20T00:46:53;23.60;55.00
11239;DHT22;5677;48.488;13.436;2023-07-20T00:49:20;23.60;55.00
11239;DHT22;5677;48.488;13.436;2023-07-20T00:51:49;23.60;55.00
11239;DHT22;5677;48.488;13.436;2023-07-20T00:54:17;23.60;55.00
11239;DHT22;5677;48.488;13.436;2023-07-20T00:56:44;23.60;55.00
11239;DHT22;5677;48.488;13.436;2023-07-20T00:59:11;23.50;55.00
11239;DHT22;5677;48.488;13.436;2023-07-20T01:01:38;23.60;55.00
11239;DHT22;5677;48.488;13.436;2023-07-20T01:04:05;23.60;55.00
11239;DHT22;5677;48.488;13.436;2023-07-20T01:06:38;23.60;55.00
11239;DHT22;5677;48.488;13.436;2023-07-20T01:09:13;23.60;55.10
11239;DHT22;5677;48.488;13.436;2023-07-20T01:11:47;23.60;55.10
11239;DHT22;5677;48.488;13.436;2023-07-20T01:14:17;23.60;55.10
11239;DHT22;5677;48.488;13.436;2023-07-20T01:16:44;23.50;55.10
11239;DHT22;5677;48.488;13.436;2023-07-20T01:19:12;23.60;55.10
11239;DHT22;5677;48.488;13.436;2023-07-20T01:21:45;23.60;55.10
11239;DHT22;5677;48.488;13.436;2023-07-20T01:24:56;23.60;55.10
11239;DHT22;5677;48.488;13.436;2023-07-20T01:27:43;23.60;55.10
11239;DHT22;5677;48.488;13.436;2023-07-20T01:30:35;23.60;55.10
11239;DHT22;5677;48.488;13.436;2023-07-20T01:33:08;23.60;55.10
11239;DHT22;5677;48.488;13.436;2023-07-20T01:35:36;23.50;55.10
11239;DHT22;5677;48.488;13.436;2023-07-20T01:38:04;23.50;55.20
11239;DHT22;5677;48.488;13.436;2023-07-20T01:40:32;23.50;55.20
11239;DHT22;5677;48.488;13.436;2023-07-20T01:42:59;23.50;55.20
11239;DHT22;5677;48.488;13.436;2023-07-20T01:45:25;23.50;55.20
11239;DHT22;5677;48.488;13.436;2023-07-20T01:47:52;23.50;55.20
11239;DHT22;5677;48.488;13.436;2023-07-20T01:50:20;23.50;55.20
11239;DHT22;5677;48.488;13.436;2023-07-20T01:52:47;23.50;55.20
11239;DHT22;5677;48.488;13.436;2023-07-20T01:55:14;23.50;55.20
11239;DHT22;5677;48.488;13.436;2023-07-20T01:57:41;23.50;55.20
11239;DHT22;5677;48.488;13.436;2023-07-20T02:00:09;23.50;55.20
11239;DHT22;5677;48.488;13.436;2023-07-20T02:02:35;23.50;55.20
11239;DHT22;5677;48.488;13.436;2023-07-20T02:05:02;23.50;55.20
11239;DHT22;5677;48.488;13.436;2023-07-20T02:07:31;23.50;55.20
11239;DHT22;5677;48.488;13.436;2023-07-20T02:09:57;23.50;55.20
11239;DHT22;5677;48.488;13.436;2023-07-20T02:12:24;23.50;55.20
11239;DHT22;5677;48.488;13.436;2023-07-20T02:14:51;23.50;55.20
11239;DHT22;5677;48.488;13.436;2023-07-20T02:17:18;23.50;55.20
11239;DHT22;5677;48.488;13.436;2023-07-20T02:19:45;23.50;55.30
11239;DHT22;5677;48.488;13.436;2023-07-20T02:22:15;23.50;55.30
11239;DHT22;5677;48.488;13.436;2023-07-20T02:24:43;23.50;55.30
11239;DHT22;5677;48.488;13.436;2023-07-20T02:27:10;23.50;55.30
11239;DHT22;5677;48.488;13.436;2023-07-20T02:29:37;23.50;55.30
11239;DHT22;5677;48.488;13.436;2023-07-20T02:32:04;23.50;55.30
11239;DHT22;5677;48.488;13.436;2023-07-20T02:34:31;23.50;55.30
11239;DHT22;5677;48.488;13.436;2023-07-20T02:36:58;23.50;55.30
11239;DHT22;5677;48.488;13.436;2023-07-20T02:39:27;23.40;55.20
11239;DHT22;5677;48.488;13.436;2023-07-20T02:41:55;23.50;55.30
11239;DHT22;5677;48.488;13.436;2023-07-20T02:44:22;23.50;55.30
11239;DHT22;5677;48.488;13.436;2023-07-20T02:46:49;23.50;55.30
11239;DHT22;5677;48.488;13.436;2023-07-20T02:49:16;23.40;55.20
11239;DHT22;5677;48.488;13.436;2023-07-20T02:51:43;23.40;55.20
11239;DHT22;5677;48.488;13.436;2023-07-20T02:54:10;23.40;55.20
11239;DHT22;5677;48.488;13.436;2023-07-20T02:56:37;23.40;55.20
11239;DHT22;5677;48.488;13.436;2023-07-20T02:59:05;23.40;55.20
11239;DHT22;5677;48.488;13.436;2023-07-20T03:01:31;23.50;55.40
11239;DHT22;5677;48.488;13.436;2023-07-20T03:03:58;23.40;55.30
11239;DHT22;5677;48.488;13.436;2023-07-20T03:06:25;23.40;55.30
11239;DHT22;5677;48.488;13.436;2023-07-20T03:08:52;23.40;55.20
11239;DHT22;5677;48.488;13.436;2023-07-20T03:11:19;23.40;55.30
11239;DHT22;5677;48.488;13.436;2023-07-20T03:13:46;23.40;55.30
11239;DHT22;5677;48.488;13.436;2023-07-20T03:16:19;23.40;55.30
11239;DHT22;5677;48.488;13.436;2023-07-20T03:18:46;23.40;55.30
11239;DHT22;5677;48.488;13.436;2023-07-20T03:21:13;23.40;55.30
11239;DHT22;5677;48.488;13.436;2023-07-20T03:23:40;23.40;55.30
11239;DHT22;5677;48.488;13.436;2023-07-20T03:26:07;23.40;55.30
11239;DHT22;5677;48.488;13.436;2023-07-20T03:28:34;23.40;55.30
11239;DHT22;5677;48.488;13.436;2023-07-20T03:31:01;23.40;55.30
11239;DHT22;5677;48.488;13.436;2023-07-20T03:33:30;23.40;55.30
11239;DHT22;5677;48.488;13.436;2023-07-20T03:35:57;23.40;55.30
11239;DHT22;5677;48.488;13.436;2023-07-20T03:38:25;23.40;55.30
11239;DHT22;5677;48.488;13.436;2023-07-20T03:40:52;23.40;55.30
11239;DHT22;5677;48.488;13.436;2023-07-20T03:43:20;23.40;55.40
11239;DHT22;5677;48.488;13.436;2023-07-20T03:45:47;23.40;55.30
11239;DHT22;5677;48.488;13.436;2023-07-20T03:48:15;23.40;55.30
11239;DHT22;5677;48.488;13.436;2023-07-20T03:50:44;23.40;55.40
11239;DHT22;5677;48.488;13.436;2023-07-20T03:53:11;23.30;55.40
11239;DHT22;5677;48.488;13.436;2023-07-20T03:55:38;23.40;55.30
11239;DHT22;5677;48.488;13.436;2023-07-20T03:58:06;23.40;55.40
11239;DHT22;5677;48.488;13.436;2023-07-20T04:00:33;23.40;55.30
11239;DHT22;5677;48.488;13.436;2023-07-20T04:03:00;23.40;55.40
11239;DHT22;5677;48.488;13.436;2023-07-20T04:05:26;23.30;55.40
11239;DHT22;5677;48.488;13.436;2023-07-20T04:07:55;23.30;55.40
11239;DHT22;5677;48.488;13.436;2023-07-20T04:10:22;23.40;55.40
11239;DHT22;5677;48.488;13.436;2023-07-20T04:12:49;23.30;55.40
11239;DHT22;5677;48.488;13.436;2023-07-20T04:15:16;23.30;55.40
11239;DHT22;5677;48.488;13.436;2023-07-20T04:17:42;23.30;55.40
11239;DHT22;5677;48.488;13.436;2023-07-20T04:20:09;23.40;55.40
11239;DHT22;5677;48.488;13.436;2023-07-20T04:22:36;23.40;55.40
11239;DHT22;5677;48.488;13.436;2023-07-20T04:25:05;23.30;55.40
11239;DHT22;5677;48.488;13.436;2023-07-20T04:27:32;23.30;55.40
11239;DHT22;5677;48.488;13.436;2023-07-20T04:29:58;23.30;55.40
11239;DHT22;5677;48.488;13.436;2023-07-20T04:32:26;23.40;55.40
11239;DHT22;5677;48.488;13.436;2023-07-20T04:34:52;23.30;55.40
11239;DHT22;5677;48.488;13.436;2023-07-20T04:37:19;23.30;55.40
11239;DHT22;5677;48.488;13.436;2023-07-20T04:39:46;23.30;55.40
11239;DHT22;5677;48.488;13.436;2023-07-20T04:42:14;23.30;55.40
11239;DHT22;5677;48.488;13.436;2023-07-20T04:44:41;23.30;55.40
11239;DHT22;5677;48.488;13.436;2023-07-20T04:47:08;23.30;55.40
11239;DHT22;5677;48.488;13.436;2023-07-20T04:49:35;23.30;55.40
11239;DHT22;5677;48.488;13.436;2023-07-20T04:52:02;23.40;55.50
11239;DHT22;5677;48.488;13.436;2023-07-20T04:54:29;23.30;55.40
11239;DHT22;5677;48.488;13.436;2023-07-20T04:56:56;23.30;55.40
11239;DHT22;5677;48.488;13.436;2023-07-20T04:59:24;23.30;55.40
11239;DHT22;5677;48.488;13.436;2023-07-20T05:01:50;23.30;55.40
11239;DHT22;5677;48.488;13.436;2023-07-20T05:04:18;23.30;55.40
11239;DHT22;5677;48.488;13.436;2023-07-20T05:06:45;23.40;55.40
11239;DHT22;5677;48.488;13.436;2023-07-20T05:09:12;23.30;55.40
11239;DHT22;5677;48.488;13.436;2023-07-20T05:11:38;23.30;55.40
11239;DHT22;5677;48.488;13.436;2023-07-20T05:14:05;23.40;55.40
11239;DHT22;5677;48.488;13.436;2023-07-20T05:16:33;23.30;55.40
11239;DHT22;5677;48.488;13.436;2023-07-20T05:19:00;23.30;55.40
11239;DHT22;5677;48.488;13.436;2023-07-20T05:21:27;23.40;55.40
11239;DHT22;5677;48.488;13.436;2023-07-20T05:23:53;23.40;55.40
11239;DHT22;5677;48.488;13.436;2023-07-20T05:26:20;23.40;55.40
11239;DHT22;5677;48.488;13.436;2023-07-20T05:28:47;23.40;55.30
11239;DHT22;5677;48.488;13.436;2023-07-20T05:31:13;23.40;55.30
11239;DHT22;5677;48.488;13.436;2023-07-20T05:33:42;23.40;55.30
11239;DHT22;5677;48.488;13.436;2023-07-20T05:36:08;23.40;55.30
11239;DHT22;5677;48.488;13.436;2023-07-20T05:38:35;23.40;55.30
11239;DHT22;5677;48.488;13.436;2023-07-20T05:41:02;23.40;55.30
11239;DHT22;5677;48.488;13.436;2023-07-20T05:43:29;23.40;55.30
11239;DHT22;5677;48.488;13.436;2023-07-20T05:45:56;23.40;55.30
11239;DHT22;5677;48.488;13.436;2023-07-20T05:48:23;23.40;55.30
11239;DHT22;5677;48.488;13.436;2023-07-20T05:50:52;23.40;55.30
11239;DHT22;5677;48.488;13.436;2023-07-20T05:53:19;23.40;55.20
11239;DHT22;5677;48.488;13.436;2023-07-20T05:55:52;23.40;55.30
11239;DHT22;5677;48.488;13.436;2023-07-20T05:58:18;23.40;55.30
11239;DHT22;5677;48.488;13.436;2023-07-20T06:00:47;23.40;55.20
11239;DHT22;5677;48.488;13.436;2023-07-20T06:03:14;23.40;55.30
11239;DHT22;5677;48.488;13.436;2023-07-20T06:05:41;23.40;55.30
11239;DHT22;5677;48.488;13.436;2023-07-20T06:08:10;23.40;55.30
11239;DHT22;5677;48.488;13.436;2023-07-20T06:10:36;23.40;55.30
11239;DHT22;5677;48.488;13.436;2023-07-20T06:13:03;23.40;55.30
11239;DHT22;5677;48.488;13.436;2023-07-20T06:15:32;23.40;55.30
11239;DHT22;5677;48.488;13.436;2023-07-20T06:18:01;23.40;55.30
11239;DHT22;5677;48.488;13.436;2023-07-20T06:20:29;23.40;56.00
11239;DHT22;5677;48.488;13.436;2023-07-20T06:22:56;23.40;55.30
11239;DHT22;5677;48.488;13.436;2023-07-20T06:25:24;23.40;55.30
11239;DHT22;5677;48.488;13.436;2023-07-20T06:27:51;23.40;55.30
11239;DHT22;5677;48.488;13.436;2023-07-20T06:30:18;23.40;55.30
11239;DHT22;5677;48.488;13.436;2023-07-20T06:32:44;23.40;55.30
11239;DHT22;5677;48.488;13.436;2023-07-20T06:35:11;23.40;55.30
11239;DHT22;5677;48.488;13.436;2023-07-20T06:37:38;23.40;55.30
11239;DHT22;5677;48.488;13.436;2023-07-20T06:40:06;23.40;55.30
11239;DHT22;5677;48.488;13.436;2023-07-20T06:42:35;23.40;55.30
11239;DHT22;5677;48.488;13.436;2023-07-20T06:45:02;23.40;55.20
11239;DHT22;5677;48.488;13.436;2023-07-20T06:47:29;23.40;55.20
11239;DHT22;5677;48.488;13.436;2023-07-20T06:49:56;23.40;55.20
11239;DHT22;5677;48.488;13.436;2023-07-20T06:52:23;23.40;55.20
11239;DHT22;5677;48.488;13.436;2023-07-20T06:54:49;23.40;55.20
11239;DHT22;5677;48.488;13.436;2023-07-20T06:57:16;23.40;55.20
11239;DHT22;5677;48.488;13.436;2023-07-20T06:59:44;23.40;55.20
11239;DHT22;5677;48.488;13.436;2023-07-20T07:02:11;23.40;55.20
11239;DHT22;5677;48.488;13.436;2023-07-20T07:04:38;23.40;55.20
11239;DHT22;5677;48.488;13.436;2023-07-20T07:07:04;23.40;55.20
11239;DHT22;5677;48.488;13.436;2023-07-20T07:09:31;23.40;55.10
11239;DHT22;5677;48.488;13.436;2023-07-20T07:15:21;23.40;55.20
11239;DHT22;5677;48.488;13.436;2023-07-20T07:17:48;23.50;55.20
11239;DHT22;5677;48.488;13.436;2023-07-20T07:20:16;23.50;55.20
11239;DHT22;5677;48.488;13.436;2023-07-20T07:22:42;23.50;55.20
11239;DHT22;5677;48.488;13.436;2023-07-20T07:25:10;23.50;55.20
11239;DHT22;5677;48.488;13.436;2023-07-20T07:27:37;23.50;55.10
11239;DHT22;5677;48.488;13.436;2023-07-20T07:30:05;23.50;55.10
11239;DHT22;5677;48.488;13.436;2023-07-20T07:32:33;23.50;55.10
11239;DHT22;5677;48.488;13.436;2023-07-20T07:35:00;23.50;55.10
11239;DHT22;5677;48.488;13.436;2023-07-20T07:37:27;23.50;55.10
11239;DHT22;5677;48.488;13.436;2023-07-20T07:39:54;23.50;55.00
11239;DHT22;5677;48.488;13.436;2023-07-20T07:42:21;23.50;55.00
11239;DHT22;5677;48.488;13.436;2023-07-20T07:44:48;23.50;55.00
11239;DHT22;5677;48.488;13.436;2023-07-20T07:47:14;23.50;55.00
11239;DHT22;5677;48.488;13.436;2023-07-20T07:49:42;23.50;55.00
11239;DHT22;5677;48.488;13.436;2023-07-20T07:52:09;23.50;55.00
11239;DHT22;5677;48.488;13.436;2023-07-20T07:54:36;23.50;55.00
11239;DHT22;5677;48.488;13.436;2023-07-20T07:57:03;23.50;55.00
11239;DHT22;5677;48.488;13.436;2023-07-20T07:59:30;23.50;55.00
11239;DHT22;5677;48.488;13.436;2023-07-20T08:02:02;23.50;55.00
11239;DHT22;5677;48.488;13.436;2023-07-20T08:04:28;23.50;55.00
11239;DHT22;5677;48.488;13.436;2023-07-20T08:06:57;23.50;55.00
11239;DHT22;5677;48.488;13.436;2023-07-20T08:09:24;23.50;55.00
11239;DHT22;5677;48.488;13.436;2023-07-20T08:11:51;23.50;54.90
11239;DHT22;5677;48.488;13.436;2023-07-20T08:14:18;23.50;55.00
11239;DHT22;5677;48.488;13.436;2023-07-20T08:16:45;23.50;55.00
11239;DHT22;5677;48.488;13.436;2023-07-20T08:19:13;23.50;54.90
11239;DHT22;5677;48.488;13.436;2023-07-20T08:21:39;23.50;54.90
11239;DHT22;5677;48.488;13.436;2023-07-20T08:24:08;23.50;54.90
11239;DHT22;5677;48.488;13.436;2023-07-20T08:26:34;23.50;54.90
11239;DHT22;5677;48.488;13.436;2023-07-20T08:29:01;23.50;54.90
11239;DHT22;5677;48.488;13.436;2023-07-20T08:31:28;23.50;54.90
11239;DHT22;5677;48.488;13.436;2023-07-20T08:33:55;23.50;54.90
11239;DHT22;5677;48.488;13.436;2023-07-20T08:36:22;23.50;54.80
11239;DHT22;5677;48.488;13.436;2023-07-20T08:38:49;23.60;54.80
11239;DHT22;5677;48.488;13.436;2023-07-20T08:41:18;23.60;54.70
11239;DHT22;5677;48.488;13.436;2023-07-20T08:43:46;23.60;54.70
11239;DHT22;5677;48.488;13.436;2023-07-20T08:46:14;23.60;54.70
11239;DHT22;5677;48.488;13.436;2023-07-20T08:48:43;23.60;54.60
11239;DHT22;5677;48.488;13.436;2023-07-20T08:51:11;23.60;54.60
11239;DHT22;5677;48.488;13.436;2023-07-20T08:53:39;23.60;54.50
11239;DHT22;5677;48.488;13.436;2023-07-20T08:56:06;23.70;54.60
11239;DHT22;5677;48.488;13.436;2023-07-20T08:58:37;23.70;54.60
11239;DHT22;5677;48.488;13.436;2023-07-20T09:01:05;23.70;54.50
11239;DHT22;5677;48.488;13.436;2023-07-20T09:03:32;23.70;54.50
11239;DHT22;5677;48.488;13.436;2023-07-20T09:05:59;23.70;54.50
11239;DHT22;5677;48.488;13.436;2023-07-20T09:08:26;23.70;54.40
11239;DHT22;5677;48.488;13.436;2023-07-20T09:10:53;23.70;54.40
11239;DHT22;5677;48.488;13.436;2023-07-20T09:13:20;23.70;54.40
11239;DHT22;5677;48.488;13.436;2023-07-20T09:15:49;23.70;54.40
11239;DHT22;5677;48.488;13.436;2023-07-20T09:18:26;23.80;54.30
11239;DHT22;5677;48.488;13.436;2023-07-20T09:20:53;23.80;54.40
11239;DHT22;5677;48.488;13.436;2023-07-20T09:23:30;23.70;54.30
11239;DHT22;5677;48.488;13.436;2023-07-20T09:25:57;23.70;54.30
11239;DHT22;5677;48.488;13.436;2023-07-20T09:28:24;23.80;54.30
11239;DHT22;5677;48.488;13.436;2023-07-20T09:30:54;23.80;54.30
11239;DHT22;5677;48.488;13.436;2023-07-20T09:33:22;23.80;54.30
11239;DHT22;5677;48.488;13.436;2023-07-20T09:35:49;23.80;54.30
11239;DHT22;5677;48.488;13.436;2023-07-20T09:38:15;23.80;54.30
11239;DHT22;5677;48.488;13.436;2023-07-20T09:40:42;23.80;54.30
11239;DHT22;5677;48.488;13.436;2023-07-20T09:43:09;23.80;54.30
11239;DHT22;5677;48.488;13.436;2023-07-20T09:45:40;23.80;54.30
11239;DHT22;5677;48.488;13.436;2023-07-20T09:48:09;23.80;54.30
11239;DHT22;5677;48.488;13.436;2023-07-20T09:50:39;23.80;54.30
11239;DHT22;5677;48.488;13.436;2023-07-20T09:53:11;23.80;54.30
11239;DHT22;5677;48.488;13.436;2023-07-20T09:55:38;23.80;54.30
11239;DHT22;5677;48.488;13.436;2023-07-20T09:58:06;23.80;54.30
11239;DHT22;5677;48.488;13.436;2023-07-20T10:00:35;23.80;54.30
11239;DHT22;5677;48.488;13.436;2023-07-20T10:03:03;23.80;54.20
11239;DHT22;5677;48.488;13.436;2023-07-20T10:05:33;23.80;54.20
11239;DHT22;5677;48.488;13.436;2023-07-20T10:08:02;23.80;54.20
11239;DHT22;5677;48.488;13.436;2023-07-20T10:10:33;23.80;54.20
11239;DHT22;5677;48.488;13.436;2023-07-20T10:13:01;23.80;54.30
11239;DHT22;5677;48.488;13.436;2023-07-20T10:15:32;23.80;54.30
11239;DHT22;5677;48.488;13.436;2023-07-20T10:18:04;23.80;54.30
11239;DHT22;5677;48.488;13.436;2023-07-20T10:20:36;23.80;54.20
11239;DHT22;5677;48.488;13.436;2023-07-20T10:23:04;23.80;54.20
11239;DHT22;5677;48.488;13.436;2023-07-20T10:25:31;23.80;54.30
11239;DHT22;5677;48.488;13.436;2023-07-20T10:28:04;23.80;54.30
11239;DHT22;5677;48.488;13.436;2023-07-20T10:30:31;23.80;54.20
11239;DHT22;5677;48.488;13.436;2023-07-20T10:32:58;23.80;54.20
11239;DHT22;5677;48.488;13.436;2023-07-20T10:35:28;23.80;54.20
11239;DHT22;5677;48.488;13.436;2023-07-20T10:38:00;23.80;54.20
11239;DHT22;5677;48.488;13.436;2023-07-20T10:40:31;23.80;54.20
11239;DHT22;5677;48.488;13.436;2023-07-20T10:43:06;23.80;54.20
11239;DHT22;5677;48.488;13.436;2023-07-20T10:45:48;23.80;54.20
11239;DHT22;5677;48.488;13.436;2023-07-20T10:48:17;23.80;54.20
11239;DHT22;5677;48.488;13.436;2023-07-20T10:50:46;23.80;54.20
11239;DHT22;5677;48.488;13.436;2023-07-20T10:53:33;23.80;54.20
11239;DHT22;5677;48.488;13.436;2023-07-20T10:56:07;23.80;54.20
11239;DHT22;5677;48.488;13.436;2023-07-20T10:58:34;23.80;54.20
11239;DHT22;5677;48.488;13.436;2023-07-20T11:01:03;23.80;54.20
11239;DHT22;5677;48.488;13.436;2023-07-20T11:03:32;23.80;54.20
11239;DHT22;5677;48.488;13.436;2023-07-20T11:08:41;23.80;54.20
11239;DHT22;5677;48.488;13.436;2023-07-20T11:11:27;23.80;54.20
11239;DHT22;5677;48.488;13.436;2023-07-20T11:13:56;23.80;54.20
11239;DHT22;5677;48.488;13.436;2023-07-20T11:16:40;23.80;54.20
11239;DHT22;5677;48.488;13.436;2023-07-20T11:19:14;23.80;54.90
11239;DHT22;5677;48.488;13.436;2023-07-20T11:21:43;23.80;54.20
11239;DHT22;5677;48.488;13.436;2023-07-20T11:24:11;23.80;54.20
11239;DHT22;5677;48.488;13.436;2023-07-20T11:26:43;23.80;54.20
11239;DHT22;5677;48.488;13.436;2023-07-20T11:29:10;23.80;54.10
11239;DHT22;5677;48.488;13.436;2023-07-20T11:31:38;23.80;54.20
11239;DHT22;5677;48.488;13.436;2023-07-20T11:34:05;23.80;54.20
11239;DHT22;5677;48.488;13.436;2023-07-20T11:36:33;23.80;54.20
11239;DHT22;5677;48.488;13.436;2023-07-20T11:39:00;23.80;54.20
11239;DHT22;5677;48.488;13.436;2023-07-20T11:41:31;23.80;54.10
11239;DHT22;5677;48.488;13.436;2023-07-20T11:43:59;23.80;54.20
11239;DHT22;5677;48.488;13.436;2023-07-20T11:46:27;23.80;54.20
11239;DHT22;5677;48.488;13.436;2023-07-20T11:48:58;23.80;54.10
11239;DHT22;5677;48.488;13.436;2023-07-20T11:51:27;23.90;54.20
11239;DHT22;5677;48.488;13.436;2023-07-20T11:53:54;23.80;54.00
11239;DHT22;5677;48.488;13.436;2023-07-20T11:56:22;23.80;54.10
11239;DHT22;5677;48.488;13.436;2023-07-20T11:58:54;23.90;54.10
11239;DHT22;5677;48.488;13.436;2023-07-20T12:01:23;23.90;54.10
11239;DHT22;5677;48.488;13.436;2023-07-20T12:03:50;23.90;54.00
11239;DHT22;5677;48.488;13.436;2023-07-20T12:06:17;23.90;54.10
11239;DHT22;5677;48.488;13.436;2023-07-20T12:08:44;23.90;54.00
11239;DHT22;5677;48.488;13.436;2023-07-20T12:11:11;23.90;54.00
11239;DHT22;5677;48.488;13.436;2023-07-20T12:13:42;23.80;53.90
11239;DHT22;5677;48.488;13.436;2023-07-20T12:16:13;23.90;54.00
11239;DHT22;5677;48.488;13.436;2023-07-20T12:18:40;23.90;54.00
11239;DHT22;5677;48.488;13.436;2023-07-20T12:21:07;23.90;54.00
11239;DHT22;5677;48.488;13.436;2023-07-20T12:23:37;23.90;54.00
11239;DHT22;5677;48.488;13.436;2023-07-20T12:26:07;23.90;54.00
11239;DHT22;5677;48.488;13.436;2023-07-20T12:28:39;23.90;54.00
11239;DHT22;5677;48.488;13.436;2023-07-20T12:31:07;23.90;54.00
11239;DHT22;5677;48.488;13.436;2023-07-20T12:33:36;23.90;54.00
11239;DHT22;5677;48.488;13.436;2023-07-20T12:36:04;23.90;54.00
11239;DHT22;5677;48.488;13.436;2023-07-20T12:38:31;23.90;54.00
11239;DHT22;5677;48.488;13.436;2023-07-20T12:40:59;23.90;54.00
11239;DHT22;5677;48.488;13.436;2023-07-20T12:43:26;23.90;53.90
11239;DHT22;5677;48.488;13.436;2023-07-20T12:45:53;23.90;53.90
11239;DHT22;5677;48.488;13.436;2023-07-20T12:48:20;23.90;53.90
11239;DHT22;5677;48.488;13.436;2023-07-20T12:50:48;23.90;53.90
11239;DHT22;5677;48.488;13.436;2023-07-20T12:53:16;23.90;54.00
11239;DHT22;5677;48.488;13.436;2023-07-20T12:55:43;23.90;53.90
11239;DHT22;5677;48.488;13.436;2023-07-20T12:58:11;23.90;53.90
11239;DHT22;5677;48.488;13.436;2023-07-20T13:00:38;23.90;53.90
11239;DHT22;5677;48.488;13.436;2023-07-20T13:03:06;23.90;53.90
11239;DHT22;5677;48.488;13.436;2023-07-20T13:05:34;23.90;53.90
11239;DHT22;5677;48.488;13.436;2023-07-20T13:08:02;23.90;53.90
11239;DHT22;5677;48.488;13.436;2023-07-20T13:10:29;23.90;53.90
11239;DHT22;5677;48.488;13.436;2023-07-20T13:12:56;23.90;53.90
11239;DHT22;5677;48.488;13.436;2023-07-20T13:15:24;23.90;53.90
11239;DHT22;5677;48.488;13.436;2023-07-20T13:17:55;23.90;53.90
11239;DHT22;5677;48.488;13.436;2023-07-20T13:20:22;23.90;53.90
11239;DHT22;5677;48.488;13.436;2023-07-20T13:22:49;23.90;53.90
11239;DHT22;5677;48.488;13.436;2023-07-20T13:25:17;23.90;53.90
11239;DHT22;5677;48.488;13.436;2023-07-20T13:27:45;23.90;53.80
11239;DHT22;5677;48.488;13.436;2023-07-20T13:30:12;23.90;53.80
11239;DHT22;5677;48.488;13.436;2023-07-20T13:32:42;23.90;53.80
11239;DHT22;5677;48.488;13.436;2023-07-20T13:35:09;23.90;53.80
11239;DHT22;5677;48.488;13.436;2023-07-20T13:37:36;23.90;53.80
11239;DHT22;5677;48.488;13.436;2023-07-20T13:40:03;23.90;54.50
11239;DHT22;5677;48.488;13.436;2023-07-20T13:42:32;23.90;53.80
11239;DHT22;5677;48.488;13.436;2023-07-20T13:44:59;23.90;53.80
11239;DHT22;5677;48.488;13.436;2023-07-20T13:47:26;23.90;53.80
11239;DHT22;5677;48.488;13.436;2023-07-20T13:49:53;23.90;53.80
11239;DHT22;5677;48.488;13.436;2023-07-20T13:52:21;23.90;54.50
11239;DHT22;5677;48.488;13.436;2023-07-20T13:54:48;23.90;53.80
11239;DHT22;5677;48.488;13.436;2023-07-20T13:57:14;23.90;53.80
11239;DHT22;5677;48.488;13.436;2023-07-20T13:59:44;23.90;53.80
11239;DHT22;5677;48.488;13.436;2023-07-20T14:02:11;23.90;53.70
11239;DHT22;5677;48.488;13.436;2023-07-20T14:04:38;23.90;53.70
11239;DHT22;5677;48.488;13.436;2023-07-20T14:07:05;24.00;53.70
11239;DHT22;5677;48.488;13.436;2023-07-20T14:09:32;24.00;53.70
11239;DHT22;5677;48.488;13.436;2023-07-20T14:11:59;24.00;53.60
11239;DHT22;5677;48.488;13.436;2023-07-20T14:14:26;24.00;53.60
11239;DHT22;5677;48.488;13.436;2023-07-20T14:16:54;24.00;53.60
11239;DHT22;5677;48.488;13.436;2023-07-20T14:19:21;24.00;53.60
11239;DHT22;5677;48.488;13.436;2023-07-20T14:21:48;24.00;53.60
11239;DHT22;5677;48.488;13.436;2023-07-20T14:24:15;24.00;53.60
11239;DHT22;5677;48.488;13.436;2023-07-20T14:26:41;24.00;53.60
11239;DHT22;5677;48.488;13.436;2023-07-20T14:29:08;24.00;53.60
11239;DHT22;5677;48.488;13.436;2023-07-20T14:31:35;24.00;53.60
11239;DHT22;5677;48.488;13.436;2023-07-20T14:34:03;24.00;53.60
11239;DHT22;5677;48.488;13.436;2023-07-20T14:36:30;24.00;53.60
11239;DHT22;5677;48.488;13.436;2023-07-20T14:38:57;24.00;53.60
11239;DHT22;5677;48.488;13.436;2023-07-20T14:44:45;24.00;53.70
11239;DHT22;5677;48.488;13.436;2023-07-20T14:47:12;24.00;53.70
11239;DHT22;5677;48.488;13.436;2023-07-20T14:49:40;24.00;53.60
11239;DHT22;5677;48.488;13.436;2023-07-20T14:52:07;24.00;53.70
11239;DHT22;5677;48.488;13.436;2023-07-20T14:54:34;24.00;53.70
11239;DHT22;5677;48.488;13.436;2023-07-20T14:57:00;24.00;53.60
11239;DHT22;5677;48.488;13.436;2023-07-20T14:59:28;24.00;53.60
11239;DHT22;5677;48.488;13.436;2023-07-20T15:01:55;24.00;53.60
11239;DHT22;5677;48.488;13.436;2023-07-20T15:04:21;24.00;53.60
11239;DHT22;5677;48.488;13.436;2023-07-20T15:06:49;24.00;53.60
11239;DHT22;5677;48.488;13.436;2023-07-20T15:09:16;24.00;53.60
11239;DHT22;5677;48.488;13.436;2023-07-20T15:11:43;24.00;53.60
11239;DHT22;5677;48.488;13.436;2023-07-20T15:14:10;24.00;53.60
11239;DHT22;5677;48.488;13.436;2023-07-20T15:16:36;24.00;53.60
11239;DHT22;5677;48.488;13.436;2023-07-20T15:19:03;24.00;53.10
11239;DHT22;5677;48.488;13.436;2023-07-20T15:21:30;24.00;53.60
11239;DHT22;5677;48.488;13.436;2023-07-20T15:23:58;24.00;53.60
11239;DHT22;5677;48.488;13.436;2023-07-20T15:26:25;24.00;53.60
11239;DHT22;5677;48.488;13.436;2023-07-20T15:28:52;24.00;53.60
11239;DHT22;5677;48.488;13.436;2023-07-20T15:31:19;24.00;53.60
11239;DHT22;5677;48.488;13.436;2023-07-20T15:33:45;24.00;53.70
11239;DHT22;5677;48.488;13.436;2023-07-20T15:36:12;24.00;53.70
11239;DHT22;5677;48.488;13.436;2023-07-20T15:38:39;24.00;53.60
11239;DHT22;5677;48.488;13.436;2023-07-20T15:41:07;24.00;53.60
11239;DHT22;5677;48.488;13.436;2023-07-20T15:43:33;24.00;53.70
11239;DHT22;5677;48.488;13.436;2023-07-20T15:46:02;24.00;53.60
11239;DHT22;5677;48.488;13.436;2023-07-20T15:48:29;24.00;53.60